createdAt,value
2018-07-31T00:00:08.156Z,22.40
2018-07-31T00:02:36.592Z,22.40
2018-07-31T00:05:05.128Z,22.40
2018-07-31T00:07:33.564Z,22.40
2018-07-31T00:10:02.061Z,22.30
2018-07-31T00:12:30.505Z,22.40
2018-07-31T00:14:59.049Z,22.40
2018-07-31T00:17:27.610Z,22.40
2018-07-31T00:19:56.059Z,22.40
2018-07-31T00:22:24.837Z,22.30
2018-07-31T00:24:56.360Z,22.20
2018-07-31T00:27:24.747Z,22.20
2018-07-31T00:29:53.249Z,22.10
2018-07-31T00:32:22.044Z,22.00
2018-07-31T00:34:50.538Z,21.90
2018-07-31T00:37:19.043Z,21.80
2018-07-31T00:39:48.435Z,21.80
2018-07-31T00:42:16.792Z,21.80
2018-07-31T00:44:45.368Z,21.60
2018-07-31T00:47:13.816Z,21.60
2018-07-31T00:49:42.546Z,21.70
2018-07-31T00:52:10.968Z,21.60
2018-07-31T00:54:39.439Z,21.60
2018-07-31T00:57:07.853Z,21.50
2018-07-31T00:59:36.266Z,21.40
2018-07-31T01:02:04.681Z,21.40
2018-07-31T01:07:01.323Z,21.40
2018-07-31T01:09:29.773Z,21.60
2018-07-31T01:11:58.227Z,21.50
2018-07-31T01:14:26.781Z,21.50
2018-07-31T01:16:55.205Z,21.40
2018-07-31T01:19:23.734Z,21.30
2018-07-31T01:21:52.177Z,21.10
2018-07-31T01:24:20.961Z,21.10
2018-07-31T01:26:49.452Z,21.00
2018-07-31T01:29:18.025Z,21.00
2018-07-31T01:31:46.462Z,21.20
2018-07-31T01:34:14.928Z,21.20
2018-07-31T01:36:43.535Z,21.00
2018-07-31T01:39:12.787Z,21.10
2018-07-31T01:41:41.630Z,20.80
2018-07-31T01:44:10.534Z,20.70
2018-07-31T01:46:39.082Z,20.60
2018-07-31T01:49:07.554Z,20.70
2018-07-31T01:51:35.944Z,20.70
2018-07-31T01:54:04.442Z,20.80
2018-07-31T01:56:32.888Z,20.70
2018-07-31T01:59:01.335Z,20.90
2018-07-31T02:01:29.798Z,20.90
2018-07-31T02:03:58.257Z,21.00
2018-07-31T02:06:28.110Z,20.90
2018-07-31T02:08:58.126Z,20.80
2018-07-31T02:11:26.761Z,20.80
2018-07-31T02:13:55.397Z,20.70
2018-07-31T02:16:24.195Z,20.70
2018-07-31T02:18:52.800Z,20.70
2018-07-31T02:21:21.353Z,20.60
2018-07-31T02:23:49.775Z,20.70
2018-07-31T02:26:18.160Z,20.60
2018-07-31T02:28:46.627Z,20.70
2018-07-31T02:31:15.125Z,20.60
2018-07-31T02:33:43.635Z,20.50
2018-07-31T02:38:40.359Z,20.30
2018-07-31T02:41:09.870Z,20.20
2018-07-31T02:43:38.386Z,20.30
2018-07-31T02:46:06.800Z,20.30
2018-07-31T02:51:03.971Z,20.30
2018-07-31T02:53:33.057Z,20.20
2018-07-31T02:58:29.619Z,20.20
2018-07-31T03:00:58.122Z,20.10
2018-07-31T03:03:26.562Z,20.10
2018-07-31T03:05:55.018Z,19.90
2018-07-31T03:08:23.468Z,19.90
2018-07-31T03:10:51.804Z,19.80
2018-07-31T03:13:20.553Z,19.80
2018-07-31T03:15:48.771Z,19.90
2018-07-31T03:18:16.979Z,19.90
2018-07-31T03:20:45.293Z,19.90
2018-07-31T03:23:13.630Z,20.00
2018-07-31T03:25:42.042Z,19.90
2018-07-31T03:28:10.453Z,19.90
2018-07-31T03:30:38.834Z,19.90
2018-07-31T03:33:07.155Z,20.00
2018-07-31T03:35:35.518Z,20.00
2018-07-31T03:38:04.130Z,20.00
2018-07-31T03:40:32.369Z,19.90
2018-07-31T03:43:00.593Z,19.80
2018-07-31T03:45:28.939Z,19.80
2018-07-31T03:47:57.369Z,19.80
2018-07-31T03:50:25.581Z,19.70
2018-07-31T03:52:54.082Z,19.60
2018-07-31T03:55:22.335Z,19.60
2018-07-31T04:02:47.511Z,19.50
2018-07-31T04:05:15.734Z,19.60
2018-07-31T04:07:43.998Z,19.60
2018-07-31T04:10:12.231Z,19.60
2018-07-31T04:12:40.587Z,19.50
2018-07-31T04:15:12.447Z,19.50
2018-07-31T04:17:40.838Z,19.40
2018-07-31T04:20:09.506Z,19.50
2018-07-31T04:22:37.805Z,19.50
2018-07-31T04:25:06.144Z,19.60
2018-07-31T04:27:34.605Z,19.50
2018-07-31T04:30:03.009Z,19.50
2018-07-31T04:32:31.213Z,19.40
2018-07-31T04:35:00.407Z,19.30
2018-07-31T04:37:28.730Z,19.30
2018-07-31T04:39:57.263Z,19.40
2018-07-31T04:42:26.180Z,19.40
2018-07-31T04:44:57.118Z,19.40
2018-07-31T04:47:25.339Z,19.40
2018-07-31T04:49:53.737Z,19.40
2018-07-31T04:52:21.975Z,19.40
2018-07-31T04:54:50.286Z,19.40
2018-07-31T04:57:18.768Z,19.30
2018-07-31T04:59:47.006Z,19.40
2018-07-31T05:02:15.284Z,19.40
2018-07-31T05:04:43.501Z,19.40
2018-07-31T05:07:11.760Z,19.50
2018-07-31T05:09:39.968Z,19.50
2018-07-31T05:12:08.378Z,19.50
2018-07-31T05:14:36.855Z,19.60
2018-07-31T05:17:05.121Z,19.70
2018-07-31T05:19:33.405Z,19.80
2018-07-31T05:22:03.716Z,19.90
2018-07-31T05:24:32.068Z,20.00
2018-07-31T05:27:00.462Z,20.00
2018-07-31T05:29:28.890Z,20.20
2018-07-31T05:31:57.148Z,20.30
2018-07-31T05:34:25.489Z,20.50
2018-07-31T05:36:53.712Z,20.80
2018-07-31T05:39:22.056Z,21.00
2018-07-31T05:41:50.420Z,21.50
2018-07-31T05:44:18.825Z,21.50
2018-07-31T05:46:49.015Z,22.10
2018-07-31T05:49:17.308Z,22.10
2018-07-31T05:51:45.606Z,22.60
2018-07-31T05:54:13.935Z,22.70
2018-07-31T05:56:42.364Z,23.30
2018-07-31T05:59:10.820Z,23.70
2018-07-31T06:01:39.195Z,23.90
2018-07-31T06:04:08.495Z,24.20
2018-07-31T06:06:36.801Z,24.20
2018-07-31T06:09:08.024Z,24.30
2018-07-31T06:11:37.146Z,24.50
2018-07-31T06:14:07.718Z,24.50
2018-07-31T06:16:42.054Z,24.70
2018-07-31T06:19:20.203Z,24.90
2018-07-31T06:21:49.101Z,25.10
2018-07-31T06:26:46.973Z,25.80
2018-07-31T06:29:15.356Z,25.90
2018-07-31T06:31:47.504Z,25.90
2018-07-31T06:34:15.937Z,26.10
2018-07-31T06:36:44.430Z,26.20
2018-07-31T06:39:17.657Z,26.40
2018-07-31T06:41:48.119Z,26.70
2018-07-31T06:44:17.411Z,26.90
2018-07-31T06:46:50.650Z,27.00
2018-07-31T06:49:26.892Z,27.10
2018-07-31T06:51:57.108Z,27.40
2018-07-31T06:54:33.707Z,27.50
2018-07-31T06:57:01.899Z,27.70
2018-07-31T06:59:35.165Z,27.80
2018-07-31T07:02:07.260Z,28.00
2018-07-31T07:04:37.136Z,28.10
2018-07-31T07:07:08.629Z,28.40
2018-07-31T07:09:42.646Z,28.40
2018-07-31T07:12:12.233Z,28.50
2018-07-31T07:14:40.805Z,28.60
2018-07-31T07:17:09.545Z,28.60
2018-07-31T07:19:37.985Z,28.90
2018-07-31T07:22:06.717Z,29.00
2018-07-31T07:24:35.486Z,29.00
2018-07-31T07:27:04.252Z,29.00
2018-07-31T07:29:32.824Z,29.20
2018-07-31T07:32:01.204Z,29.50
2018-07-31T07:34:29.718Z,29.70
2018-07-31T07:36:58.296Z,29.70
2018-07-31T07:39:26.825Z,29.90
2018-07-31T07:41:55.347Z,30.10
2018-07-31T07:44:24.540Z,30.20
2018-07-31T07:46:53.086Z,30.20
2018-07-31T07:49:21.730Z,30.40
2018-07-31T07:51:50.234Z,30.30
2018-07-31T07:54:18.809Z,30.70
2018-07-31T07:56:47.149Z,30.70
2018-07-31T07:59:18.736Z,30.60
2018-07-31T08:04:21.578Z,30.70
2018-07-31T08:06:50.142Z,30.70
2018-07-31T08:09:19.006Z,30.80
2018-07-31T08:11:53.121Z,31.10
2018-07-31T08:14:22.493Z,31.30
2018-07-31T08:16:53.360Z,31.30
2018-07-31T08:19:23.316Z,31.70
2018-07-31T08:21:51.843Z,31.80
2018-07-31T08:24:20.570Z,32.00
2018-07-31T08:26:51.912Z,32.20
2018-07-31T08:29:26.884Z,32.30
2018-07-31T08:31:55.595Z,32.00
2018-07-31T08:34:26.823Z,32.20
2018-07-31T08:37:05.770Z,32.20
2018-07-31T08:39:39.110Z,32.20
2018-07-31T08:42:09.703Z,32.40
2018-07-31T08:44:40.206Z,32.50
2018-07-31T08:47:08.560Z,32.50
2018-07-31T08:49:36.919Z,32.60
2018-07-31T08:54:37.714Z,33.20
2018-07-31T08:57:06.188Z,33.30
2018-07-31T08:59:36.814Z,33.30
2018-07-31T09:02:05.112Z,33.50
2018-07-31T09:04:33.515Z,33.50
2018-07-31T09:07:02.036Z,33.60
2018-07-31T09:09:32.788Z,33.50
2018-07-31T09:12:02.985Z,33.60
2018-07-31T09:14:32.567Z,33.70
2018-07-31T09:17:04.260Z,33.80
2018-07-31T09:19:32.790Z,33.90
2018-07-31T09:23:12.977Z,33.90
2018-07-31T09:28:21.529Z,33.70
2018-07-31T09:30:55.511Z,33.80
2018-07-31T09:33:23.704Z,33.90
2018-07-31T09:35:52.188Z,34.10
2018-07-31T09:38:23.703Z,34.00
2018-07-31T09:43:21.859Z,34.20
2018-07-31T09:45:50.276Z,34.30
2018-07-31T09:48:18.811Z,34.20
2018-07-31T09:50:51.302Z,34.10
2018-07-31T09:53:21.874Z,34.20
2018-07-31T09:55:51.289Z,34.10
2018-07-31T10:00:57.345Z,34.30
2018-07-31T10:03:28.070Z,34.40
2018-07-31T10:06:01.786Z,34.60
2018-07-31T10:08:32.541Z,34.80
2018-07-31T10:11:07.387Z,34.70
2018-07-31T10:13:40.739Z,34.80
2018-07-31T10:16:12.232Z,34.80
2018-07-31T10:18:43.384Z,34.90
2018-07-31T10:21:15.131Z,35.00
2018-07-31T10:23:46.857Z,34.70
2018-07-31T10:26:16.150Z,34.70
2018-07-31T10:28:44.533Z,34.70
2018-07-31T10:31:16.450Z,34.70
2018-07-31T10:33:44.829Z,34.70
2018-07-31T10:36:15.716Z,34.80
2018-07-31T10:38:44.196Z,34.80
2018-07-31T10:41:20.280Z,34.80
2018-07-31T10:43:48.745Z,34.80
2018-07-31T10:46:23.678Z,35.00
2018-07-31T10:48:53.468Z,35.10
2018-07-31T10:51:22.132Z,35.00
2018-07-31T10:53:53.424Z,35.00
2018-07-31T10:56:22.533Z,35.00
2018-07-31T10:58:55.692Z,35.20
2018-07-31T11:01:24.925Z,35.30
2018-07-31T11:03:55.868Z,35.20
2018-07-31T11:06:29.723Z,35.20
2018-07-31T11:09:03.199Z,35.20
2018-07-31T11:14:10.226Z,35.20
2018-07-31T11:16:39.070Z,35.20
2018-07-31T11:19:15.131Z,35.30
2018-07-31T11:24:20.122Z,35.30
2018-07-31T11:26:48.629Z,35.10
2018-07-31T11:29:17.095Z,35.10
2018-07-31T11:31:45.670Z,35.10
2018-07-31T11:34:16.687Z,35.40
2018-07-31T11:36:54.568Z,35.50
2018-07-31T11:39:36.541Z,35.40
2018-07-31T11:42:05.222Z,35.40
2018-07-31T11:44:36.540Z,35.30
2018-07-31T11:47:08.572Z,35.10
2018-07-31T11:49:44.607Z,35.10
2018-07-31T11:52:13.585Z,35.10
2018-07-31T11:54:42.402Z,35.10
2018-07-31T11:57:17.894Z,35.20
2018-07-31T11:59:47.593Z,35.40
2018-07-31T12:02:20.396Z,35.30
2018-07-31T12:04:53.161Z,35.20
2018-07-31T12:07:26.233Z,35.20
2018-07-31T12:09:58.160Z,35.20
2018-07-31T12:12:26.816Z,35.30
2018-07-31T12:14:55.274Z,35.20
2018-07-31T12:17:23.881Z,35.20
2018-07-31T12:19:53.200Z,35.30
2018-07-31T12:22:24.687Z,35.10
2018-07-31T12:24:56.371Z,35.10
2018-07-31T12:27:26.254Z,35.20
2018-07-31T12:29:58.976Z,36.80
2018-07-31T12:32:29.147Z,34.90
2018-07-31T12:35:03.438Z,35.00
2018-07-31T12:37:37.668Z,34.90
2018-07-31T12:40:07.625Z,35.00
2018-07-31T12:42:37.573Z,35.20
2018-07-31T12:45:09.041Z,35.20
2018-07-31T12:47:37.404Z,35.20
2018-07-31T12:52:50.911Z,35.20
2018-07-31T12:55:21.348Z,35.10
2018-07-31T12:57:53.754Z,35.10
2018-07-31T13:02:57.936Z,35.00
2018-07-31T13:05:30.800Z,35.00
2018-07-31T13:08:03.353Z,35.00
2018-07-31T13:10:32.836Z,34.90
2018-07-31T13:15:36.125Z,35.00
2018-07-31T13:20:34.815Z,35.00
2018-07-31T13:23:03.461Z,35.00
2018-07-31T13:28:07.590Z,35.00
2018-07-31T13:30:36.792Z,35.10
2018-07-31T13:33:08.521Z,35.10
2018-07-31T13:35:37.721Z,35.10
2018-07-31T13:40:49.704Z,35.10
2018-07-31T13:43:19.108Z,35.20
2018-07-31T13:45:47.508Z,35.10
2018-07-31T13:48:17.696Z,35.10
2018-07-31T13:50:47.279Z,35.10
2018-07-31T13:53:15.724Z,35.00
2018-07-31T13:55:44.165Z,35.10
2018-07-31T13:58:13.904Z,35.00
2018-07-31T14:00:46.484Z,34.90
2018-07-31T14:03:17.869Z,34.80
2018-07-31T14:05:51.666Z,34.90
2018-07-31T14:08:20.347Z,34.90
2018-07-31T14:10:50.392Z,34.80
2018-07-31T14:13:20.487Z,34.70
2018-07-31T14:15:51.451Z,34.60
2018-07-31T14:18:21.564Z,34.50
2018-07-31T14:20:51.046Z,34.60
2018-07-31T14:23:19.659Z,34.50
2018-07-31T14:25:48.164Z,34.60
2018-07-31T14:28:20.274Z,34.80
2018-07-31T14:30:51.867Z,34.80
2018-07-31T14:35:50.794Z,34.50
2018-07-31T14:38:19.197Z,34.50
2018-07-31T14:45:48.258Z,34.70
2018-07-31T14:50:50.361Z,34.90
2018-07-31T14:53:19.175Z,34.90
2018-07-31T14:55:47.600Z,34.80
2018-07-31T15:00:54.005Z,34.70
2018-07-31T15:03:23.245Z,34.70
2018-07-31T15:05:51.593Z,34.70
2018-07-31T15:08:19.958Z,34.70
2018-07-31T15:10:48.646Z,34.70
2018-07-31T15:13:19.457Z,34.80
2018-07-31T15:15:49.532Z,34.70
2018-07-31T15:18:18.280Z,35.00
2018-07-31T15:20:49.862Z,34.80
2018-07-31T15:23:25.526Z,34.80
2018-07-31T15:26:01.217Z,34.80
2018-07-31T15:28:32.445Z,34.80
2018-07-31T15:31:06.199Z,34.80
2018-07-31T15:33:40.268Z,34.70
2018-07-31T15:36:11.014Z,34.60
2018-07-31T15:38:41.524Z,34.60
2018-07-31T15:41:14.619Z,34.60
2018-07-31T15:43:43.658Z,34.70
2018-07-31T15:46:13.117Z,34.70
2018-07-31T15:48:46.166Z,34.70
2018-07-31T15:51:19.710Z,34.70
2018-07-31T15:53:49.600Z,34.60
2018-07-31T15:58:47.702Z,34.50
2018-07-31T16:01:19.960Z,34.50
2018-07-31T16:03:49.338Z,34.50
2018-07-31T16:06:17.697Z,34.40
2018-07-31T16:08:49.822Z,34.40
2018-07-31T16:11:19.472Z,34.40
2018-07-31T16:13:50.752Z,34.30
2018-07-31T16:16:20.936Z,34.20
2018-07-31T16:21:24.984Z,34.20
2018-07-31T16:23:54.128Z,34.30
2018-07-31T16:26:23.405Z,34.20
2018-07-31T16:28:51.772Z,34.30
2018-07-31T16:31:20.422Z,34.30
2018-07-31T16:33:52.297Z,34.30
2018-07-31T16:39:03.847Z,34.80
2018-07-31T16:41:35.218Z,34.30
2018-07-31T16:44:05.024Z,34.30
2018-07-31T16:46:34.064Z,34.30
2018-07-31T16:49:03.278Z,34.30
2018-07-31T16:51:32.600Z,34.20
2018-07-31T16:54:04.072Z,34.20
2018-07-31T16:56:32.848Z,34.30
2018-07-31T16:59:01.725Z,34.30
2018-07-31T17:01:33.512Z,34.30
2018-07-31T17:04:01.890Z,34.20
2018-07-31T17:06:30.400Z,34.20
2018-07-31T17:08:59.715Z,34.20
2018-07-31T17:11:28.725Z,34.00
2018-07-31T17:13:58.060Z,34.00
2018-07-31T17:16:26.501Z,33.90
2018-07-31T17:18:56.249Z,33.90
2018-07-31T17:21:24.665Z,33.90
2018-07-31T17:23:53.360Z,33.90
2018-07-31T17:26:21.771Z,33.90
2018-07-31T17:28:51.047Z,33.90
2018-07-31T17:33:51.991Z,33.80
2018-07-31T17:36:24.379Z,33.80
2018-07-31T17:38:52.861Z,33.80
2018-07-31T17:41:21.308Z,33.60
2018-07-31T17:43:49.779Z,33.70
2018-07-31T17:46:18.232Z,33.60
2018-07-31T17:48:51.176Z,33.60
2018-07-31T17:51:19.526Z,33.50
2018-07-31T17:53:47.858Z,33.40
2018-07-31T17:56:16.269Z,33.40
2018-07-31T17:58:48.385Z,33.30
2018-07-31T18:01:18.085Z,33.30
2018-07-31T18:03:46.539Z,33.30
2018-07-31T18:06:15.051Z,33.20
2018-07-31T18:08:45.491Z,33.10
2018-07-31T18:11:13.860Z,33.10
2018-07-31T18:13:42.369Z,33.00
2018-07-31T18:16:12.762Z,33.00
2018-07-31T18:18:41.148Z,32.90
2018-07-31T18:21:09.644Z,32.80
2018-07-31T18:23:38.044Z,32.80
2018-07-31T18:26:06.566Z,32.60
2018-07-31T18:28:38.500Z,32.50
2018-07-31T18:31:06.935Z,32.40
2018-07-31T18:33:35.328Z,32.20
2018-07-31T18:36:03.806Z,32.10
2018-07-31T18:41:03.735Z,31.90
2018-07-31T18:46:07.961Z,31.80
2018-07-31T18:48:36.370Z,31.80
2018-07-31T18:51:05.734Z,31.60
2018-07-31T18:53:34.222Z,31.50
2018-07-31T18:56:02.611Z,31.40
2018-07-31T18:58:32.872Z,31.40
2018-07-31T19:01:03.693Z,31.30
2018-07-31T19:03:32.371Z,31.10
2018-07-31T19:06:00.790Z,31.00
2018-07-31T19:08:30.297Z,30.80
2018-07-31T19:10:58.768Z,30.80
2018-07-31T19:15:55.680Z,30.20
2018-07-31T19:18:24.178Z,30.10
2018-07-31T19:20:52.814Z,29.80
2018-07-31T19:23:21.423Z,29.70
2018-07-31T19:25:50.052Z,29.70
2018-07-31T19:28:18.564Z,29.40
2018-07-31T19:30:47.106Z,29.20
2018-07-31T19:35:44.110Z,29.00
2018-07-31T19:38:13.188Z,29.80
2018-07-31T19:43:12.894Z,28.80
2018-07-31T19:45:41.425Z,28.80
2018-07-31T19:50:38.551Z,28.70
2018-07-31T19:55:35.393Z,28.50
2018-07-31T19:58:05.166Z,28.40
2018-07-31T20:00:38.726Z,28.20
2018-07-31T20:05:37.267Z,28.10
2018-07-31T20:08:08.628Z,27.90
2018-07-31T20:13:11.118Z,27.90
2018-07-31T20:15:42.326Z,27.40
2018-07-31T20:18:10.741Z,27.70
2018-07-31T20:20:38.961Z,27.70
2018-07-31T20:23:07.374Z,27.60
2018-07-31T20:25:36.764Z,27.50
2018-07-31T20:28:05.237Z,27.40
2018-07-31T20:30:34.478Z,27.40
2018-07-31T20:33:05.571Z,27.40
2018-07-31T20:35:35.340Z,27.30
2018-07-31T20:38:03.885Z,27.20
2018-07-31T20:40:49.826Z,27.10
2018-07-31T20:43:30.035Z,27.00
2018-07-31T20:45:59.353Z,26.80
2018-07-31T20:48:32.161Z,26.70
2018-07-31T20:51:00.925Z,26.60
2018-07-31T20:53:35.320Z,26.60
2018-07-31T20:56:06.410Z,26.60
2018-07-31T20:58:36.229Z,26.40
2018-07-31T21:01:05.742Z,26.20
2018-07-31T21:03:43.346Z,26.10
2018-07-31T21:06:11.911Z,25.90
2018-07-31T21:11:24.154Z,25.80
2018-07-31T21:13:52.910Z,25.70
2018-07-31T21:16:27.495Z,25.80
2018-07-31T21:18:57.789Z,25.60
2018-07-31T21:21:26.278Z,25.60
2018-07-31T21:23:55.773Z,25.60
2018-07-31T21:26:24.321Z,25.60
2018-07-31T21:28:55.128Z,25.60
2018-07-31T21:31:28.138Z,25.60
2018-07-31T21:33:58.378Z,25.50
2018-07-31T21:36:28.797Z,25.70
2018-07-31T21:38:57.522Z,25.60
2018-07-31T21:41:27.016Z,25.60
2018-07-31T21:43:56.713Z,25.60
2018-07-31T21:46:30.443Z,25.60
2018-07-31T21:49:01.839Z,25.50
2018-07-31T21:51:35.078Z,25.50
2018-07-31T21:54:05.230Z,25.50
2018-07-31T21:56:34.005Z,25.40
2018-07-31T21:59:04.803Z,25.30
2018-07-31T22:01:35.052Z,25.30
2018-07-31T22:06:32.592Z,25.10
2018-07-31T22:09:05.417Z,24.90
2018-07-31T22:11:37.122Z,24.90
2018-07-31T22:14:08.252Z,24.70
2018-07-31T22:16:38.708Z,24.70
2018-07-31T22:21:45.660Z,24.80
2018-07-31T22:24:17.841Z,24.70
2018-07-31T22:26:46.555Z,24.70
2018-07-31T22:29:15.006Z,24.60
2018-07-31T22:31:43.516Z,24.40
2018-07-31T22:34:12.315Z,24.60
2018-07-31T22:36:47.281Z,24.40
2018-07-31T22:39:15.780Z,24.40
2018-07-31T22:41:45.452Z,24.30
2018-07-31T22:44:19.824Z,24.30
2018-07-31T22:46:48.293Z,24.10
2018-07-31T22:49:18.923Z,24.10
2018-07-31T22:51:47.818Z,24.00
2018-07-31T22:54:19.916Z,24.10
2018-07-31T22:56:50.778Z,24.10
2018-07-31T22:59:21.443Z,24.00
2018-07-31T23:01:50.849Z,24.00
2018-07-31T23:04:21.247Z,23.90
2018-07-31T23:06:51.315Z,23.90
2018-07-31T23:09:21.823Z,23.90
2018-07-31T23:11:52.041Z,23.90
2018-07-31T23:16:52.028Z,23.80
2018-07-31T23:19:20.458Z,23.70
2018-07-31T23:21:50.621Z,23.70
2018-07-31T23:24:19.273Z,23.50
2018-07-31T23:26:48.707Z,23.40
2018-07-31T23:29:21.848Z,23.30
2018-07-31T23:31:50.575Z,23.20
2018-07-31T23:34:19.201Z,23.30
2018-07-31T23:36:47.568Z,23.20
2018-07-31T23:39:16.117Z,23.20
2018-07-31T23:41:46.407Z,23.20
2018-07-31T23:44:14.875Z,23.20
2018-07-31T23:46:43.352Z,23.30
2018-07-31T23:49:13.484Z,23.30
2018-07-31T23:54:11.638Z,23.30
2018-07-31T23:56:41.121Z,23.30
2018-07-31T23:59:11.136Z,23.20
